createdAt,value
2022-08-14T00:00:37.388Z,4.28
2022-08-14T00:03:29.532Z,4.55
2022-08-14T00:06:25.886Z,7.10
2022-08-14T00:09:16.099Z,6.90
2022-08-14T00:12:05.598Z,5.80
2022-08-14T00:15:21.852Z,4.50
2022-08-14T00:18:09.964Z,5.05
2022-08-14T00:21:01.009Z,5.22
2022-08-14T00:23:53.832Z,6.97
2022-08-14T00:26:41.299Z,7.07
2022-08-14T00:29:33.025Z,4.47
2022-08-14T00:32:52.498Z,6.63
2022-08-14T00:36:35.189Z,7.45
2022-08-14T00:38:40.668Z,5.75
2022-08-14T00:41:33.455Z,5.13
2022-08-14T00:44:21.325Z,3.40
2022-08-14T00:47:25.623Z,3.55
2022-08-14T00:50:18.221Z,4.55
2022-08-14T00:53:05.269Z,3.72
2022-08-14T00:55:57.712Z,3.45
2022-08-14T00:58:45.500Z,4.72
2022-08-14T01:01:39.956Z,3.38
2022-08-14T01:04:38.081Z,3.40
2022-08-14T01:07:47.243Z,4.63
2022-08-14T01:10:52.038Z,4.60
2022-08-14T01:13:42.646Z,4.13
2022-08-14T01:16:31.503Z,5.78
2022-08-14T01:19:37.323Z,6.70
2022-08-14T01:22:26.614Z,3.88
2022-08-14T01:25:12.851Z,5.22
2022-08-14T01:27:58.814Z,3.60
2022-08-14T01:30:45.366Z,4.22
2022-08-14T01:34:00.166Z,7.95
2022-08-14T01:36:38.928Z,5.63
2022-08-14T01:39:25.757Z,3.08
2022-08-14T01:42:11.931Z,2.72
2022-08-14T01:45:25.506Z,4.25
2022-08-14T01:48:16.180Z,3.35
2022-08-14T01:51:18.791Z,2.25
2022-08-14T01:54:14.558Z,2.97
2022-08-14T01:57:00.772Z,3.10
2022-08-14T01:59:48.254Z,3.17
2022-08-14T02:02:36.946Z,5.35
2022-08-14T02:05:29.436Z,2.80
2022-08-14T02:08:22.475Z,3.28
2022-08-14T02:11:23.965Z,2.15
2022-08-14T02:14:14.259Z,3.67
2022-08-14T02:17:01.325Z,4.90
2022-08-14T02:19:48.144Z,3.50
2022-08-14T02:22:34.708Z,3.38
2022-08-14T02:25:31.175Z,2.60
2022-08-14T02:28:25.798Z,2.75
2022-08-14T02:31:24.474Z,2.60
2022-08-14T02:34:32.135Z,2.38
2022-08-14T02:37:22.346Z,2.88
2022-08-14T02:40:09.383Z,2.15
2022-08-14T02:42:57.504Z,1.92
2022-08-14T02:45:45.359Z,3.15
2022-08-14T02:49:04.728Z,3.10
2022-08-14T02:51:50.723Z,1.88
2022-08-14T02:54:40.723Z,4.97
2022-08-14T02:57:40.489Z,2.50
2022-08-14T03:00:27.310Z,3.58
2022-08-14T03:03:13.222Z,5.78
2022-08-14T03:06:00.374Z,4.38
2022-08-14T03:08:47.371Z,2.25
2022-08-14T03:11:34.679Z,3.83
2022-08-14T03:14:23.306Z,2.97
2022-08-14T03:17:10.409Z,2.20
2022-08-14T03:19:56.398Z,3.30
2022-08-14T03:22:45.003Z,4.65
2022-08-14T03:25:38.105Z,4.32
2022-08-14T03:28:33.535Z,7.95
2022-08-14T03:31:26.038Z,2.92
2022-08-14T03:34:24.613Z,4.93
2022-08-14T03:40:40.713Z,4.90
2022-08-14T03:43:28.327Z,5.15
2022-08-14T03:46:38.817Z,3.60
2022-08-14T03:49:29.299Z,6.50
2022-08-14T03:52:27.960Z,5.00
2022-08-14T03:55:22.143Z,8.50
2022-08-14T03:58:09.470Z,16.38
2022-08-14T04:01:01.637Z,10.93
2022-08-14T04:03:48.664Z,10.38
2022-08-14T04:06:47.617Z,13.27
2022-08-14T04:09:34.252Z,14.68
2022-08-14T04:12:26.581Z,26.58
2022-08-14T04:15:15.168Z,12.60
2022-08-14T04:18:09.285Z,24.83
2022-08-14T04:21:01.292Z,15.68
2022-08-14T04:23:57.085Z,10.40
2022-08-14T04:26:45.002Z,10.60
2022-08-14T04:29:33.371Z,11.70
2022-08-14T04:33:01.074Z,12.75
2022-08-14T04:35:55.312Z,4.57
2022-08-14T04:39:00.296Z,3.65
2022-08-14T04:42:11.824Z,4.10
2022-08-14T04:45:00.648Z,3.88
2022-08-14T04:48:05.566Z,8.13
2022-08-14T04:50:54.184Z,5.00
2022-08-14T04:53:43.716Z,6.80
2022-08-14T04:56:31.228Z,6.53
2022-08-14T04:59:19.796Z,5.25
2022-08-14T05:02:08.273Z,7.72
2022-08-14T05:04:56.919Z,12.25
2022-08-14T05:07:54.129Z,4.43
2022-08-14T05:10:56.800Z,5.18
2022-08-14T05:16:54.021Z,3.40
2022-08-14T05:19:44.655Z,2.28
2022-08-14T05:22:55.608Z,6.20
2022-08-14T05:25:43.107Z,3.08
2022-08-14T05:28:34.188Z,6.97
2022-08-14T05:31:20.355Z,4.57
2022-08-14T05:34:09.472Z,3.25
2022-08-14T05:37:01.821Z,3.15
2022-08-14T05:42:35.262Z,2.20
2022-08-14T05:45:21.242Z,3.50
2022-08-14T05:48:09.522Z,2.15
2022-08-14T05:50:55.991Z,4.57
2022-08-14T05:53:42.268Z,6.15
2022-08-14T05:56:29.067Z,4.90
2022-08-14T05:59:20.784Z,8.98
2022-08-14T06:02:26.917Z,3.53
2022-08-14T06:05:15.272Z,3.70
2022-08-14T06:08:01.903Z,4.07
2022-08-14T06:11:03.103Z,3.47
2022-08-14T06:13:49.387Z,6.72
2022-08-14T06:16:38.078Z,5.55
2022-08-14T06:19:26.517Z,3.83
2022-08-14T06:22:13.095Z,7.05
2022-08-14T06:24:58.840Z,5.40
2022-08-14T06:27:47.740Z,5.15
2022-08-14T06:30:46.271Z,3.67
2022-08-14T06:36:45.554Z,3.80
2022-08-14T06:39:37.425Z,4.63
2022-08-14T06:42:32.196Z,4.05
2022-08-14T06:45:19.334Z,5.57
2022-08-14T06:48:06.218Z,3.38
2022-08-14T06:50:58.544Z,3.00
2022-08-14T06:53:44.378Z,3.92
2022-08-14T06:56:32.058Z,3.20
2022-08-14T06:59:20.034Z,3.28
2022-08-14T07:02:24.836Z,5.00
2022-08-14T07:05:33.232Z,5.65
2022-08-14T07:08:31.212Z,4.82
2022-08-14T07:11:18.117Z,5.10
2022-08-14T07:14:05.699Z,28.33
2022-08-14T07:16:55.387Z,12.38
2022-08-14T07:19:41.628Z,12.20
2022-08-14T07:22:32.602Z,9.88
2022-08-14T07:25:19.673Z,6.07
2022-08-14T07:28:20.218Z,4.57
2022-08-14T07:31:09.913Z,3.22
2022-08-14T07:33:55.776Z,3.15
2022-08-14T07:36:53.732Z,2.63
2022-08-14T07:39:51.503Z,13.35
2022-08-14T07:42:44.079Z,77.70
2022-08-14T07:45:32.345Z,90.93
2022-08-14T07:48:25.115Z,48.30
2022-08-14T07:51:16.834Z,15.07
2022-08-14T07:54:09.788Z,10.10
2022-08-14T07:57:00.056Z,7.78
2022-08-14T07:59:49.449Z,5.43
2022-08-14T08:02:36.007Z,5.30
2022-08-14T08:05:26.863Z,5.00
2022-08-14T08:08:26.811Z,8.63
2022-08-14T08:11:14.828Z,4.45
2022-08-14T08:14:06.285Z,4.32
2022-08-14T08:16:57.536Z,5.15
2022-08-14T08:19:47.492Z,3.58
2022-08-14T08:22:37.985Z,3.40
2022-08-14T08:25:24.938Z,4.38
2022-08-14T08:28:19.844Z,4.10
2022-08-14T08:31:17.417Z,4.38
2022-08-14T08:34:06.683Z,4.32
2022-08-14T08:37:06.602Z,5.57
2022-08-14T08:40:02.614Z,5.45
2022-08-14T08:42:53.248Z,6.95
2022-08-14T08:45:40.246Z,6.80
2022-08-14T08:48:52.263Z,4.75
2022-08-14T08:51:43.018Z,4.70
2022-08-14T08:54:31.522Z,9.05
2022-08-14T08:57:21.402Z,4.50
2022-08-14T09:00:24.992Z,4.80
2022-08-14T09:03:17.906Z,5.20
2022-08-14T09:06:54.456Z,16.45
2022-08-14T09:09:25.973Z,43.67
2022-08-14T09:12:19.328Z,9.50
2022-08-14T09:15:12.096Z,14.23
2022-08-14T09:17:58.671Z,8.10
2022-08-14T09:20:47.092Z,4.72
2022-08-14T09:23:35.103Z,4.05
2022-08-14T09:26:49.259Z,4.60
2022-08-14T09:29:35.655Z,4.28
2022-08-14T09:32:59.001Z,6.15
2022-08-14T09:36:04.129Z,3.33
2022-08-14T09:38:50.482Z,3.67
2022-08-14T09:42:21.853Z,3.88
2022-08-14T09:45:20.585Z,3.05
2022-08-14T09:48:18.807Z,7.70
2022-08-14T09:54:19.693Z,2.45
2022-08-14T09:57:12.092Z,2.97
2022-08-14T09:59:58.100Z,4.72
2022-08-14T10:03:05.503Z,2.50
2022-08-14T10:06:10.479Z,4.68
2022-08-14T10:09:16.903Z,2.92
2022-08-14T10:12:13.317Z,3.58
2022-08-14T10:15:16.847Z,6.03
2022-08-14T10:18:17.599Z,3.45
2022-08-14T10:21:09.669Z,1.70
2022-08-14T10:23:55.552Z,1.67
2022-08-14T10:26:43.551Z,8.10
2022-08-14T10:29:35.037Z,3.25
2022-08-14T10:32:28.702Z,2.22
2022-08-14T10:35:30.956Z,1.50
2022-08-14T10:38:36.999Z,2.28
2022-08-14T10:41:46.789Z,3.42
2022-08-14T10:44:38.905Z,4.15
2022-08-14T10:48:07.682Z,3.60
2022-08-14T10:50:51.601Z,5.97
2022-08-14T10:53:39.833Z,1.30
2022-08-14T10:56:35.221Z,3.05
2022-08-14T10:59:30.780Z,2.20
2022-08-14T11:02:45.346Z,3.25
2022-08-14T11:05:56.077Z,3.70
2022-08-14T11:08:45.663Z,2.10
2022-08-14T11:11:35.801Z,2.55
2022-08-14T11:14:23.129Z,2.92
2022-08-14T11:17:13.754Z,11.63
2022-08-14T11:20:14.108Z,6.57
2022-08-14T11:23:04.780Z,5.38
2022-08-14T11:25:57.178Z,2.15
2022-08-14T11:29:17.978Z,7.05
2022-08-14T11:32:04.334Z,2.40
2022-08-14T11:34:53.527Z,8.10
2022-08-14T11:37:51.352Z,3.10
2022-08-14T11:40:43.790Z,4.85
2022-08-14T11:43:44.027Z,5.13
2022-08-14T11:46:43.699Z,4.93
2022-08-14T11:49:34.901Z,5.78
2022-08-14T11:52:21.538Z,7.05
2022-08-14T11:55:15.619Z,14.63
2022-08-14T11:58:10.981Z,22.52
2022-08-14T12:01:02.780Z,8.20
2022-08-14T12:03:52.022Z,9.85
2022-08-14T12:06:52.604Z,7.25
2022-08-14T12:09:42.977Z,5.90
2022-08-14T12:12:35.949Z,5.00
2022-08-14T12:15:33.698Z,32.97
2022-08-14T12:18:38.728Z,7.22
2022-08-14T12:21:26.051Z,6.13
2022-08-14T12:24:35.624Z,7.45
2022-08-14T12:27:25.328Z,11.05
2022-08-14T12:30:26.852Z,9.95
2022-08-14T12:33:33.048Z,8.48
2022-08-14T12:36:23.673Z,6.85
2022-08-14T12:39:21.044Z,7.65
2022-08-14T12:42:07.522Z,7.95
2022-08-14T12:44:58.799Z,8.77
2022-08-14T12:47:51.482Z,9.02
2022-08-14T12:50:42.066Z,9.43
2022-08-14T12:53:38.632Z,10.25
2022-08-14T12:56:33.381Z,8.95
2022-08-14T12:59:31.249Z,12.80
2022-08-14T13:02:27.324Z,10.82
2022-08-14T13:05:14.614Z,11.18
2022-08-14T13:08:03.739Z,10.82
2022-08-14T13:10:52.188Z,10.85
2022-08-14T13:13:44.638Z,14.20
2022-08-14T13:16:33.658Z,11.98
2022-08-14T13:19:28.268Z,12.25
2022-08-14T13:22:28.770Z,11.63
2022-08-14T13:25:18.565Z,17.67
2022-08-14T13:28:05.596Z,13.20
2022-08-14T13:30:58.971Z,11.85
2022-08-14T13:33:46.076Z,22.10
2022-08-14T13:36:51.773Z,15.25
2022-08-14T13:39:39.335Z,20.75
2022-08-14T13:42:31.627Z,10.88
2022-08-14T13:45:22.249Z,20.20
2022-08-14T13:48:08.912Z,13.93
2022-08-14T13:51:10.813Z,10.95
2022-08-14T13:54:10.101Z,12.88
2022-08-14T13:57:01.234Z,14.18
2022-08-14T13:59:49.422Z,12.20
2022-08-14T14:02:39.667Z,9.95
2022-08-14T14:05:53.798Z,12.15
2022-08-14T14:08:47.978Z,13.93
2022-08-14T14:11:34.701Z,14.38
2022-08-14T14:14:45.113Z,14.27
2022-08-14T14:17:29.113Z,11.82
2022-08-14T14:20:35.471Z,12.20
2022-08-14T14:23:25.664Z,15.73
2022-08-14T14:26:23.073Z,10.80
2022-08-14T14:29:14.090Z,10.48
2022-08-14T14:32:01.614Z,18.35
2022-08-14T14:34:48.126Z,9.27
2022-08-14T14:37:35.552Z,8.15
2022-08-14T14:40:54.149Z,7.53
2022-08-14T14:43:28.854Z,9.23
2022-08-14T14:46:17.774Z,8.50
2022-08-14T14:49:08.733Z,9.32
2022-08-14T14:51:56.950Z,6.13
2022-08-14T14:54:43.578Z,10.80
2022-08-14T14:57:35.364Z,7.55
2022-08-14T15:00:22.049Z,8.50
2022-08-14T15:03:07.778Z,7.10
2022-08-14T15:05:54.281Z,5.25
2022-08-14T15:08:56.365Z,5.80
2022-08-14T15:11:47.101Z,10.60
2022-08-14T15:14:54.920Z,4.75
2022-08-14T15:17:42.008Z,5.40
2022-08-14T15:20:30.190Z,5.63
2022-08-14T15:23:17.803Z,4.72
2022-08-14T15:26:08.886Z,3.15
2022-08-14T15:29:03.080Z,5.00
2022-08-14T15:31:51.392Z,4.40
2022-08-14T15:34:51.149Z,9.43
2022-08-14T15:37:42.455Z,4.28
2022-08-14T15:40:29.038Z,3.22
2022-08-14T15:43:16.311Z,3.47
2022-08-14T15:46:03.727Z,5.65
2022-08-14T15:48:50.128Z,3.20
2022-08-14T15:51:42.294Z,4.70
2022-08-14T15:54:31.645Z,6.88
2022-08-14T15:57:18.079Z,4.43
2022-08-14T16:00:40.553Z,4.95
2022-08-14T16:03:35.162Z,4.57
2022-08-14T16:06:29.792Z,7.13
2022-08-14T16:09:15.847Z,4.68
2022-08-14T16:12:05.345Z,5.07
2022-08-14T16:14:51.204Z,5.28
2022-08-14T16:17:44.035Z,6.35
2022-08-14T16:20:41.688Z,5.80
2022-08-14T16:23:36.000Z,6.85
2022-08-14T16:26:30.013Z,12.07
2022-08-14T16:29:21.316Z,17.40
2022-08-14T16:32:32.091Z,23.65
2022-08-14T16:35:16.471Z,26.48
2022-08-14T16:38:19.191Z,31.23
2022-08-14T16:41:26.529Z,17.73
2022-08-14T16:44:21.852Z,21.98
2022-08-14T16:47:22.524Z,14.85
2022-08-14T16:50:11.205Z,15.80
2022-08-14T16:53:00.723Z,10.63
2022-08-14T16:55:53.615Z,15.52
2022-08-14T16:58:42.954Z,15.63
2022-08-14T17:01:29.069Z,12.43
2022-08-14T17:04:24.717Z,11.30
2022-08-14T17:07:13.622Z,11.23
2022-08-14T17:10:09.226Z,13.27
2022-08-14T17:13:27.079Z,12.73
2022-08-14T17:16:37.138Z,11.20
2022-08-14T17:19:24.310Z,21.13
2022-08-14T17:22:14.093Z,15.57
2022-08-14T17:25:03.531Z,12.90
2022-08-14T17:28:52.690Z,17.35
2022-08-14T17:31:19.156Z,13.43
2022-08-14T17:34:05.455Z,11.68
2022-08-14T17:36:56.528Z,13.40
2022-08-14T17:40:15.889Z,9.93
2022-08-14T17:43:02.810Z,9.07
2022-08-14T17:45:49.902Z,8.65
2022-08-14T17:49:10.485Z,10.15
2022-08-14T17:52:07.843Z,10.57
2022-08-14T17:55:09.873Z,13.05
2022-08-14T17:57:59.046Z,15.27
2022-08-14T18:00:45.692Z,10.82
2022-08-14T18:03:51.197Z,9.85
2022-08-14T18:07:09.083Z,16.85
2022-08-14T18:09:56.960Z,11.18
2022-08-14T18:12:45.593Z,11.93
2022-08-14T18:15:37.268Z,12.38
2022-08-14T18:18:23.605Z,10.48
2022-08-14T18:21:42.449Z,10.90
2022-08-14T18:24:19.967Z,10.10
2022-08-14T18:27:23.111Z,13.27
2022-08-14T18:33:22.671Z,8.82
2022-08-14T18:36:48.182Z,11.57
2022-08-14T18:40:01.798Z,9.75
2022-08-14T18:42:47.657Z,11.18
2022-08-14T18:45:42.886Z,14.32
2022-08-14T18:48:50.980Z,11.02
2022-08-14T18:51:46.155Z,10.43
2022-08-14T18:54:36.852Z,10.15
2022-08-14T18:57:23.503Z,16.98
2022-08-14T19:00:32.820Z,13.25
2022-08-14T19:03:22.697Z,11.82
2022-08-14T19:06:11.307Z,11.80
2022-08-14T19:09:05.421Z,17.02
2022-08-14T19:11:51.692Z,10.52
2022-08-14T19:14:47.597Z,11.27
2022-08-14T19:18:14.869Z,13.52
2022-08-14T19:20:54.098Z,8.10
2022-08-14T19:23:44.414Z,9.13
2022-08-14T19:26:52.181Z,8.38
2022-08-14T19:29:40.689Z,10.23
2022-08-14T19:32:36.896Z,16.90
2022-08-14T19:35:48.993Z,10.93
2022-08-14T19:38:44.516Z,11.60
2022-08-14T19:41:35.834Z,11.18
2022-08-14T19:44:31.663Z,16.38
2022-08-14T19:47:18.910Z,12.27
2022-08-14T19:50:38.333Z,8.05
2022-08-14T19:53:17.207Z,8.43
2022-08-14T19:56:04.936Z,10.13
2022-08-14T19:58:54.859Z,7.00
2022-08-14T20:01:51.260Z,7.80
2022-08-14T20:04:47.615Z,6.25
2022-08-14T20:07:56.268Z,7.97
2022-08-14T20:11:07.363Z,9.48
2022-08-14T20:14:29.494Z,8.80
2022-08-14T20:17:18.625Z,9.07
2022-08-14T20:20:15.426Z,9.32
2022-08-14T20:23:12.186Z,6.75
2022-08-14T20:25:59.489Z,9.43
2022-08-14T20:28:51.615Z,8.85
2022-08-14T20:31:39.191Z,8.48
2022-08-14T20:34:38.405Z,10.55
2022-08-14T20:37:37.506Z,10.35
2022-08-14T20:40:28.122Z,7.68
2022-08-14T20:43:39.316Z,9.10
2022-08-14T20:46:30.491Z,8.20
2022-08-14T20:49:18.740Z,10.32
2022-08-14T20:52:19.207Z,12.52
2022-08-14T20:55:22.227Z,11.68
2022-08-14T20:58:38.555Z,10.57
2022-08-14T21:01:34.805Z,7.97
2022-08-14T21:04:30.504Z,9.20
2022-08-14T21:07:25.726Z,8.75
2022-08-14T21:10:34.080Z,9.43
2022-08-14T21:14:08.915Z,9.32
2022-08-14T21:19:45.442Z,10.23
2022-08-14T21:22:38.576Z,12.68
2022-08-14T21:25:24.364Z,12.50
2022-08-14T21:28:29.638Z,12.18
2022-08-14T21:31:17.604Z,10.20
2022-08-14T21:34:05.511Z,13.35
2022-08-14T21:37:15.527Z,13.25
2022-08-14T21:40:02.093Z,11.75
2022-08-14T21:43:17.780Z,11.88
2022-08-14T21:46:05.068Z,16.73
2022-08-14T21:48:50.805Z,14.95
2022-08-14T21:51:52.891Z,11.52
2022-08-14T21:54:49.697Z,8.50
2022-08-14T21:58:46.074Z,7.70
2022-08-14T22:00:51.610Z,8.02
2022-08-14T22:03:39.613Z,9.50
2022-08-14T22:06:33.841Z,7.25
2022-08-14T22:09:25.499Z,7.55
2022-08-14T22:12:45.326Z,14.35
2022-08-14T22:15:30.122Z,10.48
2022-08-14T22:18:19.839Z,7.93
2022-08-14T22:21:08.217Z,6.80
2022-08-14T22:24:10.757Z,9.88
2022-08-14T22:26:59.621Z,11.25
2022-08-14T22:29:45.480Z,8.27
2022-08-14T22:32:57.301Z,10.00
2022-08-14T22:35:44.490Z,7.13
2022-08-14T22:38:37.040Z,7.43
2022-08-14T22:41:30.408Z,11.57
2022-08-14T22:44:38.692Z,8.15
2022-08-14T22:47:40.309Z,7.50
2022-08-14T22:50:30.726Z,9.93
2022-08-14T22:53:19.086Z,13.95
2022-08-14T22:56:05.421Z,16.15
2022-08-14T22:59:09.487Z,11.27
2022-08-14T23:01:58.781Z,13.05
2022-08-14T23:04:53.871Z,7.63
2022-08-14T23:08:58.942Z,10.80
2022-08-14T23:10:47.260Z,8.32
2022-08-14T23:13:33.287Z,7.43
2022-08-14T23:16:21.103Z,8.43
2022-08-14T23:19:11.015Z,12.38
2022-08-14T23:21:57.492Z,7.03
2022-08-14T23:24:43.665Z,8.70
2022-08-14T23:28:03.257Z,8.70
2022-08-14T23:30:40.574Z,10.23
2022-08-14T23:33:35.423Z,6.30
2022-08-14T23:36:32.336Z,12.35
2022-08-14T23:39:32.743Z,7.32
2022-08-14T23:42:39.990Z,10.90
2022-08-14T23:45:37.162Z,9.23
2022-08-14T23:48:27.882Z,6.95
2022-08-14T23:51:16.647Z,7.38
2022-08-14T23:54:05.863Z,11.27
2022-08-14T23:57:11.886Z,10.77
2022-08-14T23:59:57.743Z,10.52
